createdAt,value
2023-01-22T00:00:26.456Z,23.22
2023-01-22T00:01:26.474Z,23.21
2023-01-22T00:02:26.507Z,23.21
2023-01-22T00:03:26.519Z,23.19
2023-01-22T00:04:26.510Z,23.22
2023-01-22T00:05:26.518Z,23.19
2023-01-22T00:06:26.541Z,23.19
2023-01-22T00:07:26.644Z,23.21
2023-01-22T00:08:26.573Z,23.22
2023-01-22T00:09:26.595Z,23.22
2023-01-22T00:10:26.612Z,23.22
2023-01-22T00:11:26.628Z,23.22
2023-01-22T00:12:26.660Z,23.21
2023-01-22T00:13:26.669Z,23.22
2023-01-22T00:14:26.693Z,23.22
2023-01-22T00:15:26.686Z,23.22
2023-01-22T00:16:26.705Z,23.21
2023-01-22T00:17:26.712Z,23.22
2023-01-22T00:18:26.751Z,23.21
2023-01-22T00:19:26.820Z,23.19
2023-01-22T00:20:26.752Z,23.22
2023-01-22T00:21:26.769Z,23.22
2023-01-22T00:22:26.852Z,23.21
2023-01-22T00:23:26.792Z,23.19
2023-01-22T00:24:26.893Z,23.21
2023-01-22T00:25:26.834Z,23.21
2023-01-22T00:26:26.860Z,23.19
2023-01-22T00:27:26.867Z,23.19
2023-01-22T00:28:26.963Z,23.22
2023-01-22T00:29:26.905Z,23.21
2023-01-22T00:30:26.913Z,23.21
2023-01-22T00:31:27.557Z,23.21
2023-01-22T00:32:26.950Z,23.21
2023-01-22T00:33:26.969Z,23.22
2023-01-22T00:34:26.990Z,23.18
2023-01-22T00:35:26.989Z,23.21
2023-01-22T00:36:27.015Z,23.21
2023-01-22T00:37:27.036Z,23.21
2023-01-22T00:38:27.060Z,23.21
2023-01-22T00:39:27.153Z,23.19
2023-01-22T00:40:27.085Z,23.22
2023-01-22T00:41:27.103Z,23.22
2023-01-22T00:42:27.122Z,23.19
2023-01-22T00:43:27.223Z,23.21
2023-01-22T00:44:27.171Z,23.23
2023-01-22T00:45:27.235Z,23.22
2023-01-22T00:46:27.247Z,23.23
2023-01-22T00:47:27.202Z,23.22
2023-01-22T00:48:27.245Z,23.23
2023-01-22T00:49:27.248Z,23.22
2023-01-22T00:50:27.246Z,23.23
2023-01-22T00:51:27.334Z,23.21
2023-01-22T00:52:27.286Z,23.23
2023-01-22T00:53:27.301Z,23.22
2023-01-22T00:54:27.337Z,23.22
2023-01-22T00:55:27.352Z,23.22
2023-01-22T00:56:27.371Z,23.21
2023-01-22T00:57:28.038Z,23.21
2023-01-22T00:58:27.981Z,23.19
2023-01-22T00:59:27.434Z,23.18
2023-01-22T01:00:27.475Z,23.21
2023-01-22T01:01:27.464Z,23.19
2023-01-22T01:02:27.483Z,23.19
2023-01-22T01:03:27.514Z,23.19
2023-01-22T01:04:27.509Z,23.19
2023-01-22T01:05:27.548Z,23.18
2023-01-22T01:06:27.588Z,23.15
2023-01-22T01:07:27.643Z,23.21
2023-01-22T01:08:27.608Z,23.19
2023-01-22T01:09:27.620Z,23.22
2023-01-22T01:10:27.651Z,23.22
2023-01-22T01:11:27.665Z,23.22
2023-01-22T01:12:27.698Z,23.21
2023-01-22T01:13:27.815Z,23.18
2023-01-22T01:14:27.804Z,23.19
2023-01-22T01:15:27.746Z,23.22
2023-01-22T01:18:27.808Z,23.19
2023-01-22T01:35:28.066Z,23.18
2023-01-22T01:36:47.311Z,23.19
2023-01-22T01:38:28.064Z,23.19
2023-01-22T01:39:28.052Z,23.18
2023-01-22T01:40:28.058Z,23.18
2023-01-22T01:41:28.040Z,23.17
2023-01-22T01:42:28.035Z,23.15
2023-01-22T01:43:28.021Z,23.18
2023-01-22T01:44:28.086Z,23.18
2023-01-22T01:45:28.007Z,23.18
2023-01-22T01:46:28.128Z,23.18
2023-01-22T01:47:28.001Z,23.21
2023-01-22T01:48:28.003Z,23.17
2023-01-22T01:49:27.997Z,23.18
2023-01-22T01:50:27.979Z,23.18
2023-01-22T01:51:27.966Z,23.17
2023-01-22T01:52:27.964Z,23.18
2023-01-22T01:53:27.958Z,23.18
2023-01-22T01:54:27.966Z,23.19
2023-01-22T01:55:27.946Z,23.18
2023-01-22T01:56:27.943Z,23.18
2023-01-22T01:57:27.945Z,23.18
2023-01-22T01:58:27.922Z,23.18
2023-01-22T01:59:27.915Z,23.17
2023-01-22T02:00:28.028Z,23.18
2023-01-22T02:01:27.913Z,23.18
2023-01-22T02:02:27.986Z,23.19
2023-01-22T02:03:27.888Z,23.19
2023-01-22T02:04:27.886Z,23.17
2023-01-22T02:05:27.888Z,23.18
2023-01-22T02:06:27.871Z,23.19
2023-01-22T02:07:27.861Z,23.19
2023-01-22T02:08:27.861Z,23.21
2023-01-22T02:09:27.878Z,23.21
2023-01-22T02:10:27.873Z,23.22
2023-01-22T02:11:27.895Z,23.21
2023-01-22T02:12:27.909Z,23.21
2023-01-22T02:13:27.920Z,23.22
2023-01-22T02:14:27.942Z,23.22
2023-01-22T02:15:27.946Z,23.21
2023-01-22T02:16:28.000Z,23.18
2023-01-22T02:17:27.994Z,23.21
2023-01-22T02:18:28.086Z,23.21
2023-01-22T02:19:28.010Z,23.22
2023-01-22T02:20:28.032Z,23.23
2023-01-22T02:21:28.040Z,23.22
2023-01-22T02:22:28.057Z,23.21
2023-01-22T02:23:28.176Z,23.19
2023-01-22T02:24:28.148Z,23.22
2023-01-22T02:25:28.119Z,23.23
2023-01-22T02:26:28.141Z,23.23
2023-01-22T02:27:28.135Z,23.23
2023-01-22T02:28:28.176Z,23.22
2023-01-22T02:29:28.177Z,23.22
2023-01-22T02:30:29.025Z,23.21
2023-01-22T02:31:28.234Z,23.21
2023-01-22T02:32:28.238Z,23.22
2023-01-22T02:33:28.255Z,23.19
2023-01-22T02:34:28.621Z,23.19
2023-01-22T02:35:28.270Z,23.21
2023-01-22T02:36:28.272Z,23.21
2023-01-22T02:37:28.292Z,23.22
2023-01-22T02:38:28.348Z,23.21
2023-01-22T02:39:28.345Z,23.22
2023-01-22T02:40:28.356Z,23.21
2023-01-22T02:41:29.023Z,23.19
2023-01-22T02:42:29.026Z,23.19
2023-01-22T02:43:28.394Z,23.21
2023-01-22T02:44:28.394Z,23.22
2023-01-22T02:45:28.532Z,23.19
2023-01-22T02:46:28.411Z,23.21
2023-01-22T02:47:28.440Z,23.22
2023-01-22T02:48:28.457Z,23.22
2023-01-22T02:49:28.484Z,23.21
2023-01-22T02:50:28.562Z,23.23
2023-01-22T02:51:28.497Z,23.22
2023-01-22T02:52:28.528Z,23.21
2023-01-22T02:53:28.538Z,23.19
2023-01-22T02:54:28.553Z,23.23
2023-01-22T02:55:28.574Z,23.21
2023-01-22T02:56:28.593Z,23.22
2023-01-22T02:57:28.605Z,23.21
2023-01-22T02:58:28.631Z,23.19
2023-01-22T02:59:28.651Z,23.23
2023-01-22T03:00:28.678Z,23.21
2023-01-22T03:01:28.686Z,23.21
2023-01-22T03:17:28.951Z,23.23
2023-01-22T03:18:28.925Z,23.22
2023-01-22T03:19:28.941Z,23.22
2023-01-22T03:20:28.962Z,23.22
2023-01-22T03:21:28.971Z,23.22
2023-01-22T03:22:29.053Z,23.21
2023-01-22T03:23:28.982Z,23.21
2023-01-22T03:24:29.001Z,23.19
2023-01-22T03:25:29.021Z,23.21
2023-01-22T03:26:29.019Z,23.22
2023-01-22T03:27:29.049Z,23.22
2023-01-22T03:28:29.061Z,23.19
2023-01-22T03:29:29.079Z,23.23
2023-01-22T03:30:29.537Z,23.21
2023-01-22T03:31:29.234Z,23.22
2023-01-22T03:32:29.130Z,23.21
2023-01-22T03:33:29.142Z,23.21
2023-01-22T03:34:29.177Z,23.21
2023-01-22T03:35:29.189Z,23.19
2023-01-22T03:36:29.212Z,23.19
2023-01-22T03:37:29.208Z,23.21
2023-01-22T03:38:29.305Z,23.21
2023-01-22T03:39:29.243Z,23.19
2023-01-22T03:40:29.246Z,23.19
2023-01-22T03:41:29.555Z,23.21
2023-01-22T03:42:29.282Z,23.21
2023-01-22T03:43:29.297Z,23.19
2023-01-22T03:44:29.380Z,23.19
2023-01-22T03:45:29.334Z,23.17
2023-01-22T03:46:29.359Z,23.18
2023-01-22T03:47:29.339Z,23.21
2023-01-22T03:48:29.381Z,23.18
2023-01-22T03:49:29.375Z,23.21
2023-01-22T03:50:29.449Z,23.22
2023-01-22T03:51:29.406Z,23.19
2023-01-22T03:52:29.423Z,23.21
2023-01-22T03:53:29.436Z,23.19
2023-01-22T03:54:29.523Z,23.19
2023-01-22T03:55:29.482Z,23.19
2023-01-22T03:56:29.496Z,23.21
2023-01-22T03:57:29.484Z,23.18
2023-01-22T03:58:29.499Z,23.22
2023-01-22T03:59:29.505Z,23.22
2023-01-22T04:00:29.525Z,23.21
2023-01-22T04:01:29.566Z,23.22
2023-01-22T04:02:29.558Z,23.21
2023-01-22T04:03:29.561Z,23.23
2023-01-22T04:04:29.594Z,23.23
2023-01-22T04:05:29.585Z,23.25
2023-01-22T04:06:29.604Z,23.23
2023-01-22T04:07:29.601Z,23.23
2023-01-22T04:08:29.612Z,23.23
2023-01-22T04:09:29.630Z,23.22
2023-01-22T04:10:29.725Z,23.22
2023-01-22T04:11:29.648Z,23.22
2023-01-22T04:12:29.651Z,23.23
2023-01-22T04:13:29.665Z,23.22
2023-01-22T04:14:29.675Z,23.22
2023-01-22T04:15:29.701Z,23.22
2023-01-22T04:16:29.773Z,23.21
2023-01-22T04:17:29.713Z,23.22
2023-01-22T04:18:29.727Z,23.23
2023-01-22T04:19:29.748Z,23.23
2023-01-22T04:20:29.753Z,23.25
2023-01-22T04:21:29.780Z,23.22
2023-01-22T04:22:29.798Z,23.23
2023-01-22T04:23:29.816Z,23.21
2023-01-22T04:24:29.830Z,23.21
2023-01-22T04:25:29.847Z,23.22
2023-01-22T04:26:29.960Z,23.22
2023-01-22T04:27:29.962Z,23.22
2023-01-22T04:28:29.899Z,23.23
2023-01-22T04:29:30.019Z,23.22
2023-01-22T04:30:30.011Z,23.23
2023-01-22T04:31:30.065Z,23.25
2023-01-22T04:32:29.964Z,23.22
2023-01-22T04:33:29.979Z,23.26
2023-01-22T04:34:30.000Z,23.23
2023-01-22T04:35:30.003Z,23.22
2023-01-22T04:36:30.028Z,23.25
2023-01-22T04:37:30.043Z,23.23
2023-01-22T04:38:30.052Z,23.23
2023-01-22T04:39:30.076Z,23.22
2023-01-22T04:40:30.155Z,23.23
2023-01-22T04:41:30.111Z,23.22
2023-01-22T04:42:30.220Z,23.21
2023-01-22T04:43:30.147Z,23.22
2023-01-22T04:44:30.158Z,23.19
2023-01-22T04:45:30.196Z,23.22
2023-01-22T04:46:30.234Z,23.21
2023-01-22T04:47:30.215Z,23.19
2023-01-22T04:48:30.229Z,23.21
2023-01-22T04:49:30.243Z,23.18
2023-01-22T04:50:30.319Z,23.18
2023-01-22T04:51:30.293Z,23.21
2023-01-22T04:52:30.293Z,23.22
2023-01-22T04:53:30.303Z,23.22
2023-01-22T04:54:30.314Z,23.21
2023-01-22T04:55:30.347Z,23.19
2023-01-22T04:56:30.360Z,23.21
2023-01-22T04:57:30.388Z,23.21
2023-01-22T04:58:30.470Z,23.19
2023-01-22T04:59:30.387Z,23.19
2023-01-22T05:00:30.482Z,23.19
2023-01-22T05:01:30.513Z,23.19
2023-01-22T05:02:30.514Z,23.21
2023-01-22T05:03:30.475Z,23.21
2023-01-22T05:04:30.493Z,23.19
2023-01-22T05:05:30.505Z,23.19
2023-01-22T05:06:31.074Z,23.19
2023-01-22T05:07:30.531Z,23.17
2023-01-22T05:08:30.552Z,23.19
2023-01-22T05:09:30.571Z,23.21
2023-01-22T05:10:30.591Z,23.19
2023-01-22T05:11:30.597Z,23.18
2023-01-22T05:12:30.618Z,23.18
2023-01-22T05:13:30.647Z,23.18
2023-01-22T05:14:30.729Z,23.18
2023-01-22T05:16:30.678Z,23.17
2023-01-22T05:17:30.692Z,23.18
2023-01-22T05:18:30.703Z,23.18
2023-01-22T05:19:30.725Z,23.21
2023-01-22T05:20:30.744Z,23.18
2023-01-22T05:21:30.759Z,23.18
2023-01-22T05:22:30.789Z,23.21
2023-01-22T05:23:30.807Z,23.19
2023-01-22T05:24:30.828Z,23.19
2023-01-22T05:25:30.825Z,23.19
2023-01-22T05:26:30.843Z,23.21
2023-01-22T05:27:30.867Z,23.18
2023-01-22T05:28:30.886Z,23.19
2023-01-22T05:29:30.931Z,23.18
2023-01-22T05:30:31.024Z,23.18
2023-01-22T05:31:31.093Z,23.19
2023-01-22T05:32:30.996Z,23.17
2023-01-22T05:33:31.004Z,23.18
2023-01-22T05:34:31.033Z,23.19
2023-01-22T05:35:31.115Z,23.18
2023-01-22T05:36:31.086Z,23.19
2023-01-22T05:37:31.095Z,23.18
2023-01-22T05:38:31.110Z,23.21
2023-01-22T05:39:31.127Z,23.19
2023-01-22T05:40:31.152Z,23.19
2023-01-22T05:41:31.162Z,23.17
2023-01-22T05:42:31.184Z,23.19
2023-01-22T05:43:31.193Z,23.17
2023-01-22T05:44:33.328Z,23.19
2023-01-22T05:45:31.224Z,23.18
2023-01-22T05:46:31.443Z,23.19
2023-01-22T05:47:31.270Z,23.18
2023-01-22T05:48:31.295Z,23.19
2023-01-22T05:49:31.344Z,23.21
2023-01-22T05:50:31.323Z,23.18
2023-01-22T05:51:32.429Z,23.17
2023-01-22T05:52:31.343Z,23.19
2023-01-22T05:53:31.368Z,23.17
2023-01-22T05:54:31.383Z,23.15
2023-01-22T05:55:31.394Z,23.15
2023-01-22T05:56:31.419Z,23.18
2023-01-22T05:57:31.432Z,23.17
2023-01-22T05:58:31.447Z,23.17
2023-01-22T05:59:31.460Z,23.17
2023-01-22T06:00:31.483Z,23.15
2023-01-22T06:01:31.506Z,23.17
2023-01-22T06:02:31.637Z,23.15
2023-01-22T06:03:31.586Z,23.17
2023-01-22T06:04:31.591Z,23.14
2023-01-22T06:05:31.605Z,23.17
2023-01-22T06:06:31.613Z,23.15
2023-01-22T06:07:31.612Z,23.18
2023-01-22T06:08:34.018Z,23.15
2023-01-22T06:09:31.777Z,23.17
2023-01-22T06:10:31.823Z,23.17
2023-01-22T06:11:31.821Z,23.17
2023-01-22T06:12:31.842Z,23.18
2023-01-22T06:13:31.860Z,23.21
2023-01-22T06:14:31.872Z,23.19
2023-01-22T06:15:31.892Z,23.19
2023-01-22T06:16:32.650Z,23.19
2023-01-22T06:17:31.917Z,23.18
2023-01-22T06:18:32.020Z,23.19
2023-01-22T06:19:31.968Z,23.21
2023-01-22T06:20:31.985Z,23.19
2023-01-22T06:21:31.995Z,23.19
2023-01-22T06:22:32.078Z,23.22
2023-01-22T06:23:32.045Z,23.18
2023-01-22T06:24:32.072Z,23.18
2023-01-22T06:25:32.077Z,23.18
2023-01-22T06:26:32.105Z,23.19
2023-01-22T06:27:32.148Z,23.22
2023-01-22T06:28:32.158Z,23.21
2023-01-22T06:29:32.171Z,23.21
2023-01-22T06:30:32.182Z,23.18
2023-01-22T06:31:32.286Z,23.19
2023-01-22T06:32:32.223Z,23.19
2023-01-22T06:33:32.247Z,23.19
2023-01-22T06:35:32.283Z,23.17
2023-01-22T06:36:32.316Z,23.18
2023-01-22T06:37:32.339Z,23.18
2023-01-22T06:38:32.340Z,23.17
2023-01-22T06:39:32.366Z,23.19
2023-01-22T06:40:32.383Z,23.17
2023-01-22T06:41:32.415Z,23.18
2023-01-22T06:42:32.432Z,23.19
2023-01-22T06:43:32.443Z,23.18
2023-01-22T06:44:32.465Z,23.17
2023-01-22T06:45:32.485Z,23.19
2023-01-22T06:46:32.562Z,23.21
2023-01-22T06:47:32.530Z,23.21
2023-01-22T06:48:32.533Z,23.18
2023-01-22T06:49:32.562Z,23.18
2023-01-22T06:50:32.640Z,23.17
2023-01-22T06:51:32.585Z,23.21
2023-01-22T06:52:32.598Z,23.19
2023-01-22T06:53:32.610Z,23.19
2023-01-22T06:54:32.619Z,23.22
2023-01-22T06:55:32.647Z,23.18
2023-01-22T06:56:32.657Z,23.21
2023-01-22T06:57:32.675Z,23.18
2023-01-22T06:58:33.614Z,23.18
2023-01-22T06:59:32.702Z,23.19
2023-01-22T07:00:32.712Z,23.21
2023-01-22T07:01:32.843Z,23.19
2023-01-22T07:02:32.755Z,23.22
2023-01-22T07:03:32.823Z,23.18
2023-01-22T07:04:32.798Z,23.23
2023-01-22T07:05:32.812Z,23.22
2023-01-22T07:06:32.909Z,23.19
2023-01-22T07:07:32.838Z,23.21
2023-01-22T07:08:32.854Z,23.22
2023-01-22T07:09:32.876Z,23.19
2023-01-22T07:10:32.884Z,23.19
2023-01-22T07:11:32.903Z,23.19
2023-01-22T07:12:32.917Z,23.23
2023-01-22T07:13:32.927Z,23.22
2023-01-22T07:14:37.420Z,23.22
2023-01-22T07:15:32.996Z,23.22
2023-01-22T07:16:32.962Z,23.23
2023-01-22T07:17:32.925Z,23.23
2023-01-22T07:18:32.903Z,23.23
2023-01-22T07:19:32.913Z,23.23
2023-01-22T07:20:32.892Z,23.23
2023-01-22T07:21:32.888Z,23.22
2023-01-22T07:22:32.968Z,23.23
2023-01-22T07:23:32.870Z,23.26
2023-01-22T07:24:32.976Z,23.22
2023-01-22T07:25:32.866Z,23.22
2023-01-22T07:26:32.858Z,23.21
2023-01-22T07:27:32.847Z,23.23
2023-01-22T07:28:32.839Z,23.22
2023-01-22T07:29:32.840Z,23.26
2023-01-22T07:30:32.855Z,23.23
2023-01-22T07:31:32.855Z,23.23
2023-01-22T07:32:32.825Z,23.23
2023-01-22T07:33:32.805Z,23.25
2023-01-22T07:34:32.810Z,23.26
2023-01-22T07:35:32.787Z,23.25
2023-01-22T07:36:32.789Z,23.28
2023-01-22T07:37:32.792Z,23.26
2023-01-22T07:38:32.870Z,23.28
2023-01-22T08:10:38.496Z,23.48
2023-01-22T08:21:32.477Z,23.63
2023-01-22T08:22:32.478Z,23.64
2023-01-22T08:23:32.473Z,23.64
2023-01-22T08:24:32.455Z,23.66
2023-01-22T08:25:32.457Z,23.66
2023-01-22T08:27:32.519Z,23.69
2023-01-22T08:28:32.442Z,23.70
2023-01-22T08:29:32.506Z,23.73
2023-01-22T08:30:33.878Z,23.73
2023-01-22T08:31:32.670Z,23.76
2023-01-22T08:32:32.544Z,23.79
2023-01-22T08:33:32.552Z,23.80
2023-01-22T08:34:32.533Z,23.81
2023-01-22T08:35:32.535Z,23.87
2023-01-22T08:36:32.513Z,23.87
2023-01-22T08:38:32.513Z,23.91
2023-01-22T08:39:32.497Z,23.91
2023-01-22T08:40:32.502Z,23.94
2023-01-22T08:41:32.477Z,23.96
2023-01-22T08:42:32.470Z,24.00
2023-01-22T08:43:32.550Z,24.04
2023-01-22T08:44:32.459Z,24.05
2023-01-22T08:45:32.515Z,24.08
2023-01-22T08:46:32.448Z,24.11
2023-01-22T08:47:32.441Z,24.09
2023-01-22T08:48:32.427Z,24.09
2023-01-22T08:49:32.436Z,24.11
2023-01-22T08:50:32.426Z,24.11
2023-01-22T08:51:33.171Z,24.18
2023-01-22T08:52:32.405Z,24.22
2023-01-22T08:53:32.397Z,24.29
2023-01-22T08:54:32.406Z,24.40
2023-01-22T08:55:32.386Z,24.44
2023-01-22T08:56:32.396Z,24.53
2023-01-22T08:57:32.413Z,24.62
2023-01-22T08:58:32.444Z,24.64
2023-01-22T08:59:32.566Z,24.76
2023-01-22T09:00:32.530Z,24.94
2023-01-22T09:01:32.510Z,24.97
2023-01-22T09:02:32.522Z,24.99
2023-01-22T09:03:32.544Z,24.98
2023-01-22T09:04:32.673Z,24.90
2023-01-22T09:05:32.633Z,24.95
2023-01-22T09:06:32.684Z,24.97
2023-01-22T09:07:32.645Z,24.97
2023-01-22T09:08:32.692Z,24.95
2023-01-22T09:09:32.686Z,24.95
2023-01-22T09:10:32.703Z,24.91
2023-01-22T09:11:32.721Z,24.91
2023-01-22T09:12:32.749Z,24.91
2023-01-22T09:13:32.755Z,25.08
2023-01-22T09:14:32.760Z,25.36
2023-01-22T09:15:32.882Z,25.57
2023-01-22T09:16:32.912Z,25.78
2023-01-22T09:17:32.896Z,25.94
2023-01-22T09:18:32.931Z,26.02
2023-01-22T09:19:32.985Z,26.28
2023-01-22T09:20:33.097Z,26.29
2023-01-22T09:21:33.064Z,26.53
2023-01-22T09:22:33.068Z,26.73
2023-01-22T09:23:33.070Z,27.10
2023-01-22T09:24:33.116Z,27.28
2023-01-22T09:25:33.160Z,27.19
2023-01-22T09:26:33.201Z,27.23
2023-01-22T09:27:33.228Z,27.61
2023-01-22T09:28:35.156Z,28.02
2023-01-22T09:29:33.275Z,28.19
2023-01-22T09:30:34.248Z,28.32
2023-01-22T09:31:33.410Z,28.55
2023-01-22T09:32:33.239Z,29.12
2023-01-22T09:33:33.245Z,29.54
2023-01-22T09:34:33.229Z,29.64
2023-01-22T09:35:33.225Z,28.94
2023-01-22T09:36:33.217Z,28.62
2023-01-22T09:37:33.212Z,28.20
2023-01-22T09:38:33.257Z,28.09
2023-01-22T09:39:33.194Z,28.03
2023-01-22T09:40:34.613Z,28.70
2023-01-22T09:41:33.179Z,28.44
2023-01-22T09:42:33.176Z,28.42
2023-01-22T09:43:33.234Z,28.36
2023-01-22T09:44:33.753Z,28.43
2023-01-22T09:45:33.192Z,28.15
2023-01-22T09:46:33.678Z,27.80
2023-01-22T09:47:33.229Z,27.44
2023-01-22T09:48:33.125Z,27.44
2023-01-22T09:49:33.178Z,27.21
2023-01-22T09:50:33.129Z,26.87
2023-01-22T09:51:33.108Z,26.58
2023-01-22T09:52:33.109Z,26.36
2023-01-22T09:53:33.096Z,26.16
2023-01-22T09:54:33.118Z,25.98
2023-01-22T09:55:33.087Z,25.81
2023-01-22T09:56:33.085Z,25.64
2023-01-22T09:57:33.080Z,25.50
2023-01-22T09:58:33.068Z,25.37
2023-01-22T09:59:33.061Z,25.26
2023-01-22T10:00:33.055Z,25.17
2023-01-22T10:01:33.096Z,25.05
2023-01-22T10:02:33.154Z,24.95
2023-01-22T10:03:33.118Z,24.90
2023-01-22T10:04:33.031Z,24.81
2023-01-22T10:05:33.028Z,24.74
2023-01-22T10:06:32.999Z,24.67
2023-01-22T10:07:33.006Z,24.63
2023-01-22T10:08:33.001Z,24.56
2023-01-22T10:09:32.996Z,24.55
2023-01-22T10:10:32.991Z,24.52
2023-01-22T10:11:32.984Z,24.43
2023-01-22T10:12:32.969Z,24.40
2023-01-22T10:13:32.981Z,24.36
2023-01-22T10:14:32.959Z,24.32
2023-01-22T10:15:32.949Z,24.29
2023-01-22T10:16:32.953Z,24.28
2023-01-22T10:17:32.944Z,24.26
2023-01-22T10:18:32.932Z,24.22
2023-01-22T10:19:33.006Z,24.21
2023-01-22T10:20:32.919Z,24.18
2023-01-22T10:21:32.898Z,24.15
2023-01-22T10:22:32.900Z,24.16
2023-01-22T10:23:35.703Z,24.14
2023-01-22T10:24:32.884Z,24.12
2023-01-22T10:25:32.877Z,24.11
2023-01-22T10:26:32.871Z,24.11
2023-01-22T10:27:32.858Z,24.09
2023-01-22T10:28:32.849Z,24.07
2023-01-22T10:29:32.851Z,24.07
2023-01-22T10:30:32.911Z,24.04
2023-01-22T10:31:32.930Z,24.04
2023-01-22T10:32:32.827Z,24.04
2023-01-22T10:33:32.878Z,24.03
2023-01-22T10:34:32.832Z,24.01
2023-01-22T10:35:32.884Z,24.01
2023-01-22T10:36:32.800Z,24.00
2023-01-22T10:37:32.798Z,24.00
2023-01-22T10:38:33.697Z,24.00
2023-01-22T10:39:32.788Z,23.98
2023-01-22T10:40:32.774Z,23.98
2023-01-22T10:41:32.832Z,23.97
2023-01-22T10:42:32.759Z,23.96
2023-01-22T10:43:32.754Z,23.97
2023-01-22T10:44:32.753Z,23.97
2023-01-22T10:45:32.759Z,23.94
2023-01-22T10:46:32.777Z,23.94
2023-01-22T10:47:32.734Z,23.94
2023-01-22T10:48:32.725Z,23.96
2023-01-22T10:49:32.733Z,23.93
2023-01-22T10:50:32.713Z,23.91
2023-01-22T10:51:32.786Z,23.90
2023-01-22T10:52:32.697Z,23.91
2023-01-22T10:53:32.682Z,23.91
2023-01-22T10:54:32.671Z,23.90
2023-01-22T10:55:32.664Z,23.88
2023-01-22T10:56:32.668Z,23.88
2023-01-22T10:57:32.650Z,23.88
2023-01-22T10:58:32.691Z,23.88
2023-01-22T10:59:32.639Z,23.90
2023-01-22T11:00:46.425Z,23.87
2023-01-22T11:02:32.668Z,23.87
2023-01-22T11:03:32.616Z,23.88
2023-01-22T11:04:32.625Z,23.90
2023-01-22T11:05:32.606Z,23.93
2023-01-22T11:06:32.585Z,23.93
2023-01-22T11:07:32.949Z,23.97
2023-01-22T11:08:32.574Z,24.00
2023-01-22T11:09:32.596Z,24.01
2023-01-22T11:10:32.653Z,24.04
2023-01-22T11:11:32.697Z,24.00
2023-01-22T11:20:33.179Z,23.93
2023-01-22T12:11:35.514Z,23.66
2023-01-22T12:13:35.542Z,23.63
2023-01-22T12:14:35.573Z,23.66
2023-01-22T12:15:35.619Z,23.66
2023-01-22T12:16:35.701Z,23.64
2023-01-22T12:17:35.737Z,23.66
2023-01-22T12:18:35.770Z,23.64
2023-01-22T12:19:35.817Z,23.64
2023-01-22T12:20:35.880Z,23.64
2023-01-22T12:21:35.936Z,23.63
2023-01-22T12:22:36.748Z,23.66
2023-01-22T12:23:35.987Z,23.64
2023-01-22T12:24:36.060Z,23.63
2023-01-22T12:25:36.071Z,23.66
2023-01-22T12:26:36.119Z,23.62
2023-01-22T12:27:36.218Z,23.63
2023-01-22T12:28:36.160Z,23.60
2023-01-22T12:29:36.218Z,23.62
2023-01-22T12:30:36.277Z,23.60
2023-01-22T12:31:36.322Z,23.63
2023-01-22T12:32:36.284Z,23.64
2023-01-22T12:33:36.317Z,23.64
2023-01-22T12:34:36.354Z,23.60
2023-01-22T12:35:36.400Z,23.63
2023-01-22T12:36:36.423Z,23.60
2023-01-22T12:37:36.472Z,23.60
2023-01-22T12:38:36.516Z,23.63
2023-01-22T12:39:36.529Z,23.60
2023-01-22T12:40:36.549Z,23.62
2023-01-22T12:41:36.551Z,23.60
2023-01-22T12:42:36.561Z,23.62
2023-01-22T12:43:36.668Z,23.60
2023-01-22T12:44:36.607Z,23.63
2023-01-22T12:45:36.622Z,23.59
2023-01-22T12:46:36.714Z,23.59
2023-01-22T12:47:36.687Z,23.59
2023-01-22T12:48:36.739Z,23.60
2023-01-22T12:49:36.734Z,23.57
2023-01-22T12:50:36.746Z,23.59
2023-01-22T12:51:36.797Z,23.60
2023-01-22T12:52:36.815Z,23.59
2023-01-22T12:53:36.848Z,23.57
2023-01-22T12:54:37.247Z,23.59
2023-01-22T12:55:36.881Z,23.59
2023-01-22T12:56:36.899Z,23.62
2023-01-22T12:57:36.873Z,23.59
2023-01-22T12:58:36.889Z,23.59
2023-01-22T12:59:36.981Z,23.62
2023-01-22T13:00:36.919Z,23.59
2023-01-22T13:01:36.965Z,23.60
2023-01-22T13:02:36.895Z,23.57
2023-01-22T13:03:36.907Z,23.60
2023-01-22T13:04:36.934Z,23.60
2023-01-22T13:05:36.974Z,23.59
2023-01-22T13:06:37.018Z,23.59
2023-01-22T13:07:37.068Z,23.59
2023-01-22T13:08:37.136Z,23.57
2023-01-22T13:09:37.146Z,23.59
2023-01-22T13:10:37.163Z,23.59
2023-01-22T13:11:37.205Z,23.60
2023-01-22T13:12:37.256Z,23.57
2023-01-22T13:13:37.277Z,23.59
2023-01-22T13:14:37.341Z,23.59
2023-01-22T13:15:37.489Z,23.59
2023-01-22T13:16:37.405Z,23.57
2023-01-22T13:17:37.464Z,23.57
2023-01-22T13:18:37.483Z,23.60
2023-01-22T13:19:37.517Z,23.59
2023-01-22T13:20:37.540Z,23.57
2023-01-22T13:21:37.556Z,23.59
2023-01-22T13:22:37.548Z,23.59
2023-01-22T13:23:37.576Z,23.59
2023-01-22T13:24:37.596Z,23.56
2023-01-22T13:25:37.597Z,23.57
2023-01-22T13:26:37.593Z,23.57
2023-01-22T13:27:37.592Z,23.56
2023-01-22T13:28:37.591Z,23.56
2023-01-22T13:29:37.763Z,23.56
2023-01-22T13:41:37.718Z,23.53
2023-01-22T14:13:37.836Z,23.50
2023-01-22T14:14:37.835Z,23.49
2023-01-22T14:15:37.830Z,23.53
2023-01-22T14:16:37.926Z,23.52
2023-01-22T14:17:37.845Z,23.49
2023-01-22T14:18:37.846Z,23.53
2023-01-22T14:19:37.933Z,23.49
2023-01-22T14:20:37.859Z,23.52
2023-01-22T14:21:37.942Z,23.50
2023-01-22T14:22:37.869Z,23.49
2023-01-22T14:23:37.874Z,23.49
2023-01-22T14:24:37.877Z,23.50
2023-01-22T14:25:37.954Z,23.52
2023-01-22T14:26:37.881Z,23.50
2023-01-22T14:27:37.893Z,23.52
2023-01-22T14:28:37.880Z,23.49
2023-01-22T14:29:37.884Z,23.49
2023-01-22T14:30:37.920Z,23.48
2023-01-22T14:31:37.912Z,23.49
2023-01-22T14:32:37.881Z,23.50
2023-01-22T14:33:37.875Z,23.50
2023-01-22T14:34:37.873Z,23.48
2023-01-22T14:35:37.951Z,23.50
2023-01-22T14:36:37.867Z,23.48
2023-01-22T14:37:37.878Z,23.49
2023-01-22T14:39:37.852Z,23.48
2023-01-22T14:41:37.869Z,23.46
2023-01-22T14:42:37.850Z,23.46
2023-01-22T14:43:37.864Z,23.45
2023-01-22T14:44:37.873Z,23.45
2023-01-22T14:46:37.870Z,23.46
2023-01-22T14:47:37.885Z,23.44
2023-01-22T14:48:37.869Z,23.45
2023-01-22T14:50:37.875Z,23.44
2023-01-22T15:33:37.995Z,23.33
2023-01-22T15:34:38.068Z,23.36
2023-01-22T15:35:38.014Z,23.35
2023-01-22T15:36:38.020Z,23.32
2023-01-22T15:37:38.044Z,23.32
2023-01-22T15:38:38.033Z,23.32
2023-01-22T15:39:38.142Z,23.32
2023-01-22T15:40:38.056Z,23.32
2023-01-22T15:41:38.065Z,23.31
2023-01-22T15:42:38.153Z,23.32
2023-01-22T15:43:38.064Z,23.31
2023-01-22T15:44:39.234Z,23.32
2023-01-22T15:47:38.277Z,23.31
2023-01-22T15:48:38.283Z,23.29
2023-01-22T15:49:38.373Z,23.31
2023-01-22T15:50:38.375Z,23.31
2023-01-22T15:51:38.306Z,23.28
2023-01-22T15:52:38.330Z,23.28
2023-01-22T15:53:40.329Z,23.28
2023-01-22T15:54:41.403Z,23.29
2023-01-22T15:55:39.310Z,23.29
2023-01-22T15:56:38.322Z,23.28
2023-01-22T15:57:38.315Z,23.28
2023-01-22T15:58:38.305Z,23.29
2023-01-22T15:59:38.295Z,23.28
2023-01-22T16:00:39.236Z,23.28
2023-01-22T16:02:38.366Z,23.26
2023-01-22T16:03:38.780Z,23.29
2023-01-22T16:04:38.268Z,23.26
2023-01-22T16:05:40.827Z,23.29
2023-01-22T16:06:38.420Z,23.26
2023-01-22T16:07:38.430Z,23.26
2023-01-22T16:08:38.441Z,23.26
2023-01-22T16:09:38.447Z,23.28
2023-01-22T16:10:38.584Z,23.23
2023-01-22T16:11:38.463Z,23.28
2023-01-22T16:12:40.240Z,23.25
2023-01-22T16:13:38.495Z,23.25
2023-01-22T16:14:41.369Z,23.26
2023-01-22T16:15:38.502Z,23.26
2023-01-22T16:16:38.578Z,23.26
2023-01-22T16:18:38.553Z,23.23
2023-01-22T16:19:38.831Z,23.23
2023-01-22T16:20:38.474Z,23.23
2023-01-22T16:21:38.466Z,23.25
2023-01-22T16:22:40.247Z,23.23
2023-01-22T16:23:38.485Z,23.23
2023-01-22T16:24:39.444Z,23.23
2023-01-22T16:25:38.456Z,23.23
2023-01-22T16:26:38.515Z,23.22
2023-01-22T16:27:38.423Z,23.21
2023-01-22T16:28:39.324Z,23.25
2023-01-22T16:29:38.396Z,23.23
2023-01-22T16:30:38.408Z,23.23
2023-01-22T16:31:38.467Z,23.25
2023-01-22T16:32:38.612Z,23.26
2023-01-22T16:33:38.379Z,23.23
2023-01-22T16:34:38.375Z,23.22
2023-01-22T16:35:38.366Z,23.25
2023-01-22T16:36:38.369Z,23.22
2023-01-22T16:37:39.294Z,23.23
2023-01-22T16:38:39.252Z,23.25
2023-01-22T16:39:38.339Z,23.22
2023-01-22T16:40:38.391Z,23.23
2023-01-22T16:41:38.824Z,23.22
2023-01-22T16:43:39.347Z,23.21
2023-01-22T16:44:38.320Z,23.21